Time;durP1;ratioP1;P1;durP2;ratioP2;P2;SDS_P1;SDS_P2;PMS_P1;PMS_P2;Temp;Humidity;BMP_temperature;BMP_pressure;BME280_temperature;BME280_humidity;BME280_pressure;Samples;Min_cycle;Max_cycle;Signal;HPM_P1;HPM_P2
2023/06/03 00:01:41;;;;;;;3.70;1.50;;;;;;;6.43;49.57;100833.54;131258;1253;107234;-81
2023/06/03 00:04:47;;;;;;;3.70;1.60;;;;;;;6.36;49.80;100830.71;131439;1257;107422;-82
2023/06/03 00:07:52;;;;;;;3.60;1.60;;;;;;;6.28;49.80;100830.33;131472;1253;107621;-80
2023/06/03 00:10:58;;;;;;;2.70;1.60;;;;;;;6.25;49.76;100830.58;131316;1263;107534;-81
2023/06/03 00:14:03;;;;;;;9.70;7.30;;;;;;;6.20;50.03;100831.83;131164;1254;107548;-82
2023/06/03 00:17:11;;;;;;;6.50;5.10;;;;;;;6.14;49.98;100829.76;131473;1265;109243;-82
2023/06/03 00:20:17;;;;;;;4.50;3.30;;;;;;;6.11;50.31;100833.36;131144;1260;107452;-82
2023/06/03 00:23:23;;;;;;;5.80;3.10;;;;;;;6.05;50.24;100833.74;131465;1261;107361;-83
2023/06/03 00:26:29;;;;;;;4.30;2.70;;;;;;;6.02;50.51;100836.42;131373;1254;106688;-82
2023/06/03 00:29:35;;;;;;;3.90;2.30;;;;;;;5.99;50.34;100836.01;131082;1256;107493;-82
2023/06/03 00:32:41;;;;;;;5.10;2.00;;;;;;;5.94;50.52;100834.23;131266;1254;106468;-83
2023/06/03 00:35:47;;;;;;;3.10;1.60;;;;;;;5.88;50.39;100838.27;131156;1254;107451;-83
2023/06/03 00:38:52;;;;;;;2.50;1.60;;;;;;;5.82;50.68;100840.65;131284;1251;107418;-82
2023/06/03 00:41:59;;;;;;;1.70;1.20;;;;;;;5.80;50.62;100839.06;131467;1254;107192;-80
2023/06/03 00:45:06;;;;;;;3.10;1.60;;;;;;;5.75;50.83;100839.21;131349;1253;107862;-82
2023/06/03 00:48:12;;;;;;;2.60;1.70;;;;;;;5.68;50.69;100838.79;131210;1251;107525;-82
2023/06/03 00:51:18;;;;;;;3.80;2.00;;;;;;;5.63;50.97;100839.86;131113;1264;107619;-82
2023/06/03 00:54:24;;;;;;;2.70;1.80;;;;;;;5.59;51.10;100842.27;131200;1257;107617;-82
2023/06/03 00:57:30;;;;;;;2.60;1.80;;;;;;;5.54;51.15;100837.30;131178;1250;107507;-82
2023/06/03 01:00:35;;;;;;;3.00;1.70;;;;;;;5.50;51.19;100841.10;131204;1251;107679;-82
2023/06/03 01:03:42;;;;;;;3.30;1.60;;;;;;;5.47;51.34;100842.02;131281;1251;107518;-82
2023/06/03 01:07:02;;;;;;;4.20;1.70;;;;;;;5.44;51.21;100845.80;131274;1263;107505;-83
2023/06/03 01:10:16;;;;;;;3.40;1.70;;;;;;;5.39;51.26;100850.02;131097;1252;107537;-82
2023/06/03 01:13:27;;;;;;;3.40;1.50;;;;;;;5.35;51.30;100849.60;131261;1256;107532;-81
2023/06/03 01:16:34;;;;;;;3.10;1.50;;;;;;;5.27;51.56;100856.61;131283;1254;106685;-82
2023/06/03 01:19:48;;;;;;;2.80;1.60;;;;;;;5.21;51.57;100859.19;131523;1253;107535;-81
2023/06/03 01:22:56;;;;;;;4.90;2.10;;;;;;;5.15;51.69;100862.20;131238;1254;107497;-80
2023/06/03 01:26:04;;;;;;;7.80;3.90;;;;;;;5.09;51.58;100858.36;131399;1261;107496;-82
2023/06/03 01:29:09;;;;;;;10.80;5.30;;;;;;;5.04;51.60;100861.91;131547;1251;107601;-82
2023/06/03 01:32:17;;;;;;;7.60;3.60;;;;;;;5.01;51.95;100858.93;131271;1261;107491;-82
2023/06/03 01:35:23;;;;;;;6.70;3.10;;;;;;;4.98;51.91;100861.36;131253;1254;107475;-81
2023/06/03 01:38:30;;;;;;;9.30;3.80;;;;;;;4.95;51.91;100865.15;131302;1251;107273;-82
2023/06/03 01:41:42;;;;;;;7.70;3.10;;;;;;;4.91;52.08;100868.54;131498;1251;107353;-82
2023/06/03 01:44:48;;;;;;;5.20;2.70;;;;;;;4.87;52.12;100871.83;131597;1249;107919;-82
2023/06/03 01:47:54;;;;;;;6.80;3.00;;;;;;;4.81;52.13;100874.49;131546;1254;107563;-83
2023/06/03 01:50:59;;;;;;;6.40;3.00;;;;;;;4.79;52.47;100873.61;131538;1252;107502;-81
2023/06/03 01:54:05;;;;;;;8.10;4.10;;;;;;;4.75;52.41;100874.73;131570;1254;107521;-81
2023/06/03 01:57:11;;;;;;;11.10;4.60;;;;;;;4.71;52.41;100875.86;131567;1253;107567;-81
2023/06/03 02:00:17;;;;;;;8.50;4.30;;;;;;;4.66;52.46;100877.23;131364;1251;108040;-82
2023/06/03 02:03:23;;;;;;;8.30;3.90;;;;;;;4.62;52.63;100879.77;131583;1251;107255;-81
2023/06/03 02:06:28;;;;;;;10.80;4.10;;;;;;;4.58;52.69;100884.80;131446;1254;107665;-80
2023/06/03 02:09:34;;;;;;;4.10;1.80;;;;;;;4.56;52.71;100881.09;131586;1251;107397;-80
2023/06/03 02:12:40;;;;;;;2.90;1.60;;;;;;;4.53;52.84;100880.40;131570;1251;105729;-80
2023/06/03 02:15:55;;;;;;;2.60;1.50;;;;;;;4.47;52.79;100882.36;131598;1254;107715;-79
2023/06/03 02:19:03;;;;;;;3.10;1.20;;;;;;;4.46;52.86;100881.52;131622;1254;107501;-80
2023/06/03 02:22:09;;;;;;;4.60;1.80;;;;;;;4.44;52.93;100884.13;131603;1261;107519;-80
2023/06/03 02:25:14;;;;;;;3.50;1.70;;;;;;;4.41;53.00;100890.16;131243;1251;107479;-81
2023/06/03 02:28:22;;;;;;;2.80;1.50;;;;;;;4.39;53.10;100895.39;131393;1254;107286;-79
2023/06/03 02:31:28;;;;;;;2.70;1.40;;;;;;;4.35;53.10;100900.05;131268;1254;107376;-81
2023/06/03 02:34:33;;;;;;;2.10;1.30;;;;;;;4.32;53.20;100895.64;131473;1253;107510;-82
2023/06/03 02:37:39;;;;;;;2.50;1.50;;;;;;;4.31;53.03;100901.50;131272;1253;107426;-82
2023/06/03 02:40:45;;;;;;;2.60;1.50;;;;;;;4.31;53.23;100901.86;131454;1249;107318;-81
2023/06/03 02:43:51;;;;;;;2.70;1.80;;;;;;;4.32;53.31;100904.77;131530;1250;107560;-82
2023/06/03 02:46:56;;;;;;;2.10;1.30;;;;;;;4.30;53.31;100909.16;131538;1254;107541;-80
2023/06/03 02:50:02;;;;;;;3.30;1.40;;;;;;;4.28;53.65;100909.23;131599;1251;107560;-83
2023/06/03 02:53:09;;;;;;;2.10;1.30;;;;;;;4.26;53.58;100911.35;131467;1254;107400;-81
2023/06/03 02:56:15;;;;;;;2.00;1.40;;;;;;;4.26;53.72;100915.39;131502;1253;107410;-78
2023/06/03 02:59:21;;;;;;;2.10;1.30;;;;;;;4.29;53.79;100915.51;131148;1252;107538;-82
2023/06/03 03:02:27;;;;;;;2.50;1.30;;;;;;;4.29;53.74;100915.00;131291;1254;108215;-81
2023/06/03 03:05:34;;;;;;;2.30;1.50;;;;;;;4.27;53.76;100922.55;131261;1253;107550;-82
2023/06/03 03:08:40;;;;;;;3.80;1.40;;;;;;;4.30;53.95;100926.39;131339;1251;106695;-80
2023/06/03 03:11:46;;;;;;;2.90;1.40;;;;;;;4.36;53.93;100927.77;131386;1251;107568;-82
2023/06/03 03:14:53;;;;;;;2.90;1.40;;;;;;;4.46;54.28;100924.00;131296;1252;107473;-82
2023/06/03 03:17:59;;;;;;;3.20;1.50;;;;;;;4.70;54.22;100926.85;131168;1264;106556;-82
2023/06/03 03:21:06;;;;;;;2.50;1.30;;;;;;;4.99;54.05;100931.35;131429;1251;107471;-82
2023/06/03 03:24:13;;;;;;;2.70;1.50;;;;;;;5.30;54.11;100933.38;131570;1254;107435;-82
2023/06/03 03:27:20;;;;;;;3.00;1.80;;;;;;;5.54;53.94;100937.23;131640;1253;107419;-82
2023/06/03 03:30:28;;;;;;;4.10;2.30;;;;;;;5.83;54.05;100942.30;131459;1251;107482;-82
2023/06/03 03:33:34;;;;;;;4.30;2.20;;;;;;;6.18;54.22;100944.17;131200;1255;107486;-81
2023/06/03 03:36:40;;;;;;;4.00;2.40;;;;;;;6.54;53.87;100944.73;131283;1251;107458;-82
2023/06/03 03:39:50;;;;;;;2.60;1.80;;;;;;;6.91;53.84;100946.18;131329;1251;107474;-82
2023/06/03 03:42:57;;;;;;;3.00;1.50;;;;;;;7.24;53.84;100949.61;131161;1254;107525;-81
2023/06/03 03:46:08;;;;;;;1.90;1.50;;;;;;;7.57;53.60;100946.01;131322;1254;107414;-82
2023/06/03 03:49:18;;;;;;;2.70;1.60;;;;;;;7.86;53.79;100953.41;131173;1264;107462;-81
2023/06/03 03:52:30;;;;;;;1.60;1.20;;;;;;;8.12;53.57;100955.98;131270;1254;107499;-83
2023/06/03 03:55:41;;;;;;;3.90;1.70;;;;;;;8.35;53.56;100951.58;131514;1251;107350;-81
2023/06/03 03:58:48;;;;;;;2.00;1.60;;;;;;;8.57;53.66;100954.80;131320;1256;107448;-82
2023/06/03 04:01:59;;;;;;;3.60;1.50;;;;;;;8.88;53.64;100953.02;131428;1254;107458;-83
2023/06/03 04:05:06;;;;;;;2.10;1.60;;;;;;;9.14;53.57;100956.56;131544;1251;107933;-83
2023/06/03 04:08:20;;;;;;;2.40;1.60;;;;;;;9.39;53.88;100961.04;131535;1254;107541;-82
2023/06/03 04:11:27;;;;;;;2.80;1.70;;;;;;;9.70;53.61;100958.45;131475;1253;107898;-82
2023/06/03 04:14:44;;;;;;;2.60;1.80;;;;;;;9.99;53.67;100960.47;131531;1254;108634;-81
2023/06/03 04:17:50;;;;;;;4.90;1.90;;;;;;;10.21;53.87;100955.52;131520;1253;107380;-81
2023/06/03 04:20:59;;;;;;;3.30;2.00;;;;;;;10.33;53.77;100959.52;131487;1254;107502;-82
2023/06/03 04:24:06;;;;;;;3.50;2.00;;;;;;;10.37;53.70;100961.05;131481;1253;107579;-82
2023/06/03 04:27:12;;;;;;;2.80;1.80;;;;;;;10.43;53.65;100964.33;131352;1254;107253;-81
2023/06/03 04:30:19;;;;;;;3.60;1.90;;;;;;;10.47;53.59;100966.02;131577;1254;107427;-81
2023/06/03 04:33:24;;;;;;;4.80;2.10;;;;;;;10.44;53.77;100968.52;131554;1249;107312;-82
2023/06/03 04:36:30;;;;;;;2.60;2.10;;;;;;;10.43;53.99;100969.47;131363;1250;107367;-81
2023/06/03 04:39:36;;;;;;;3.90;1.80;;;;;;;10.53;53.82;100977.63;131552;1255;107501;-81
2023/06/03 04:42:41;;;;;;;3.50;2.30;;;;;;;10.56;53.81;100980.08;131544;1255;107508;-81
2023/06/03 04:45:49;;;;;;;3.70;1.90;;;;;;;10.63;54.18;100983.52;131597;1263;107445;-80
2023/06/03 04:48:55;;;;;;;4.10;2.00;;;;;;;10.69;53.89;100981.96;131518;1251;107600;-80
2023/06/03 04:52:02;;;;;;;3.30;1.70;;;;;;;10.83;54.01;100984.93;131466;1253;107650;-81
2023/06/03 04:55:09;;;;;;;3.20;1.80;;;;;;;11.01;53.99;100985.16;131395;1251;107299;-81
2023/06/03 04:58:18;;;;;;;2.90;1.70;;;;;;;11.07;53.82;100985.29;131582;1251;107490;-80
2023/06/03 05:01:26;;;;;;;2.80;1.70;;;;;;;11.30;53.48;100986.42;131499;1255;107451;-81
2023/06/03 05:04:31;;;;;;;3.30;1.60;;;;;;;11.26;53.01;100990.75;131244;1251;174045;-80
2023/06/03 05:07:39;;;;;;;2.30;1.60;;;;;;;11.14;53.40;100989.80;131542;1253;107459;-81
2023/06/03 05:10:45;;;;;;;3.60;1.70;;;;;;;11.10;53.48;100994.13;131533;1253;107489;-81
2023/06/03 05:13:51;;;;;;;2.10;1.40;;;;;;;11.13;53.75;100993.17;131343;1258;107601;-81
2023/06/03 05:16:56;;;;;;;5.60;1.80;;;;;;;11.16;53.38;100997.48;131261;1249;107508;-81
2023/06/03 05:20:04;;;;;;;4.20;1.60;;;;;;;11.24;53.26;100998.90;131318;1250;107373;-81
2023/06/03 05:23:09;;;;;;;2.90;1.60;;;;;;;11.43;53.68;100999.65;131280;1251;107518;-82
2023/06/03 05:26:15;;;;;;;3.60;1.40;;;;;;;11.71;53.65;100997.88;131226;1253;107477;-82
2023/06/03 05:29:21;;;;;;;5.20;1.50;;;;;;;11.89;53.24;100993.34;131272;1251;108123;-83
2023/06/03 05:32:28;;;;;;;3.70;1.50;;;;;;;12.02;53.11;100995.21;131214;1250;107460;-82
2023/06/03 05:35:34;;;;;;;3.20;1.30;;;;;;;12.09;53.08;100998.23;131383;1254;107639;-82
2023/06/03 05:38:40;;;;;;;2.40;1.30;;;;;;;12.27;52.95;100998.90;131346;1251;107242;-82
2023/06/03 05:41:48;;;;;;;2.80;1.50;;;;;;;12.39;52.81;100999.09;131434;1250;107481;-81
2023/06/03 05:44:55;;;;;;;4.90;1.30;;;;;;;12.40;52.56;100995.16;131377;1254;107422;-83
2023/06/03 05:48:01;;;;;;;4.20;1.50;;;;;;;12.26;52.21;100995.20;131258;1253;107534;-82
2023/06/03 05:51:07;;;;;;;3.50;1.30;;;;;;;12.27;52.85;101001.73;131419;1251;107285;-83
2023/06/03 05:54:13;;;;;;;2.40;1.10;;;;;;;12.39;53.20;101006.30;131316;1254;107574;-82
2023/06/03 05:57:19;;;;;;;2.80;1.20;;;;;;;12.49;52.85;101003.31;131470;1253;105948;-83
2023/06/03 06:00:25;;;;;;;1.70;1.40;;;;;;;12.62;52.56;101002.10;131417;1249;107038;-81
2023/06/03 06:03:32;;;;;;;4.70;1.50;;;;;;;12.73;52.89;101010.73;131579;1253;106562;-77
2023/06/03 06:06:37;;;;;;;2.10;1.40;;;;;;;12.76;52.97;101008.13;131119;1254;107400;-76
2023/06/03 06:09:43;;;;;;;2.30;1.40;;;;;;;12.80;52.92;101008.60;131295;1258;106791;-76
2023/06/03 06:12:49;;;;;;;3.80;1.50;;;;;;;12.82;52.38;101011.65;131461;1253;107604;-76
2023/06/03 06:16:03;;;;;;;3.40;1.30;;;;;;;12.62;52.19;101019.80;131424;1253;108536;-76
2023/06/03 06:19:09;;;;;;;2.30;1.20;;;;;;;12.55;52.56;101020.99;131270;1257;107468;-75
2023/06/03 06:22:15;;;;;;;1.90;1.10;;;;;;;12.56;52.53;101024.45;131217;1253;107455;-76
2023/06/03 06:25:21;;;;;;;2.60;1.10;;;;;;;12.58;52.62;101021.73;131125;1251;107618;-76
2023/06/03 06:28:28;;;;;;;3.40;1.20;;;;;;;12.64;52.76;101018.92;131189;1254;106813;-75
2023/06/03 06:31:37;;;;;;;2.40;1.00;;;;;;;12.66;52.19;101012.10;131395;1254;107406;-76
2023/06/03 06:34:44;;;;;;;2.00;1.00;;;;;;;12.61;52.43;101004.53;131351;1254;107438;-76
2023/06/03 06:37:49;;;;;;;4.40;1.10;;;;;;;12.72;52.66;101006.16;131316;1253;107575;-75
2023/06/03 06:40:55;;;;;;;1.90;1.00;;;;;;;12.73;52.39;101001.96;131332;1254;107564;-76
2023/06/03 06:44:02;;;;;;;1.90;1.00;;;;;;;12.61;52.41;100998.11;131755;1251;107253;-75
2023/06/03 06:47:10;;;;;;;2.00;1.00;;;;;;;12.61;52.51;100995.44;131367;1254;105948;-76
2023/06/03 06:50:35;;;;;;;2.10;0.80;;;;;;;12.74;52.36;100992.77;132496;1249;107226;-76
2023/06/03 06:53:43;;;;;;;3.70;0.90;;;;;;;12.85;52.34;100990.32;131379;1257;106409;-76
2023/06/03 06:56:52;;;;;;;1.90;1.00;;;;;;;12.89;52.32;100990.38;131243;1250;107473;-76
2023/06/03 06:59:57;;;;;;;2.20;1.00;;;;;;;12.87;51.52;100989.75;131160;1251;107546;-76
2023/06/03 07:03:04;;;;;;;1.80;1.20;;;;;;;12.78;51.36;100990.55;131152;1254;107379;-76
2023/06/03 07:06:10;;;;;;;1.90;1.30;;;;;;;12.73;50.49;100994.46;131064;1252;107565;-75
2023/06/03 07:09:16;;;;;;;3.10;0.80;;;;;;;12.72;51.17;100991.21;131184;1253;107499;-75
2023/06/03 07:12:21;;;;;;;1.40;0.70;;;;;;;12.81;51.20;100992.42;131154;1253;106475;-76
2023/06/03 07:15:27;;;;;;;2.20;0.60;;;;;;;12.85;50.60;100993.80;131606;1251;107390;-77
2023/06/03 07:18:35;;;;;;;1.00;0.60;;;;;;;12.82;50.88;100986.77;131248;1251;107558;-76
2023/06/03 07:21:40;;;;;;;3.20;1.10;;;;;;;12.93;51.15;100988.91;131084;1254;107540;-76
2023/06/03 07:24:48;;;;;;;1.20;0.90;;;;;;;12.99;50.75;100987.28;131401;1250;107429;-76
2023/06/03 07:27:53;;;;;;;1.80;0.80;;;;;;;13.06;51.11;100986.94;131261;1253;107511;-76
2023/06/03 07:31:00;;;;;;;1.10;0.70;;;;;;;13.20;50.24;100991.17;131291;1253;107537;-76
2023/06/03 07:34:08;;;;;;;1.40;0.60;;;;;;;13.19;49.74;100988.52;131242;1251;107097;-76
2023/06/03 07:37:23;;;;;;;1.70;0.70;;;;;;;13.23;50.05;100990.83;131305;1251;107381;-76
2023/06/03 07:40:39;;;;;;;0.70;0.50;;;;;;;13.36;50.07;100986.94;131218;1253;107522;-76
2023/06/03 07:43:45;;;;;;;1.70;0.80;;;;;;;13.44;49.48;100993.92;131338;1253;107499;-76
2023/06/03 07:46:57;;;;;;;1.00;0.60;;;;;;;13.47;48.82;100992.91;131452;1253;107508;-76
2023/06/03 07:50:04;;;;;;;1.70;1.00;;;;;;;13.51;48.88;100996.59;131308;1253;107233;-76
2023/06/03 07:53:10;;;;;;;1.30;0.80;;;;;;;13.47;48.69;100999.61;131347;1253;107327;-76
2023/06/03 07:56:16;;;;;;;2.00;0.60;;;;;;;13.41;48.32;100997.54;131237;1253;107277;-76
2023/06/03 07:59:23;;;;;;;2.70;0.90;;;;;;;13.38;48.46;101005.62;131399;1253;107541;-75
2023/06/03 08:02:30;;;;;;;2.10;0.70;;;;;;;13.25;47.86;101001.51;131205;1253;107464;-76
2023/06/03 08:05:37;;;;;;;1.30;0.60;;;;;;;13.24;48.17;100998.05;131293;1251;107637;-75
2023/06/03 08:08:43;;;;;;;1.20;0.60;;;;;;;13.38;49.04;100999.92;131352;1250;107991;-76
2023/06/03 08:11:49;;;;;;;1.00;0.50;;;;;;;13.60;49.00;100998.44;131202;1251;107366;-76
2023/06/03 08:14:54;;;;;;;1.70;0.60;;;;;;;13.73;47.07;101001.89;131138;1253;107534;-76
2023/06/03 08:18:01;;;;;;;0.80;0.60;;;;;;;13.71;47.94;100999.08;131216;1253;107532;-77
2023/06/03 08:21:07;;;;;;;2.70;0.70;;;;;;;13.76;47.38;101003.04;131258;1253;107486;-76
2023/06/03 08:24:13;;;;;;;1.40;0.60;;;;;;;13.78;46.63;100999.11;131127;1253;107490;-76
2023/06/03 08:27:19;;;;;;;1.60;0.90;;;;;;;13.86;46.83;100997.98;131152;1253;107551;-76
2023/06/03 08:30:25;;;;;;;1.80;0.70;;;;;;;13.91;46.74;100992.41;131399;1250;107533;-77
2023/06/03 08:33:30;;;;;;;1.70;0.60;;;;;;;13.89;46.27;100993.71;131401;1251;107350;-76
2023/06/03 08:36:37;;;;;;;1.30;0.60;;;;;;;14.05;47.26;100997.58;131439;1251;107535;-77
2023/06/03 08:39:43;;;;;;;1.00;0.60;;;;;;;14.22;46.75;100997.66;131434;1250;107544;-76
2023/06/03 08:42:49;;;;;;;2.00;0.60;;;;;;;14.34;46.25;100999.64;131433;1260;107530;-76
2023/06/03 08:46:09;;;;;;;1.20;0.70;;;;;;;14.44;46.80;101000.05;131399;1254;107622;-76
2023/06/03 08:49:23;;;;;;;1.40;0.60;;;;;;;14.59;46.90;101001.35;131206;1253;106524;-76
2023/06/03 08:52:34;;;;;;;2.10;1.10;;;;;;;14.73;46.71;100999.88;131182;1251;106668;-76
2023/06/03 08:55:41;;;;;;;2.20;0.70;;;;;;;14.86;46.76;100996.66;131466;1253;107481;-77
2023/06/03 08:58:49;;;;;;;1.10;0.70;;;;;;;14.97;46.07;100997.06;131347;1254;107375;-76
2023/06/03 09:01:57;;;;;;;1.40;0.50;;;;;;;14.91;45.51;100998.84;131158;1253;107522;-76
2023/06/03 09:05:04;;;;;;;1.00;0.50;;;;;;;14.89;45.27;100998.22;131282;1253;107543;-76
2023/06/03 09:08:12;;;;;;;1.40;0.70;;;;;;;14.90;45.63;100999.67;131292;1253;107450;-76
2023/06/03 09:11:20;;;;;;;1.30;1.00;;;;;;;14.99;45.39;100998.12;131225;1253;107506;-76
2023/06/03 09:14:26;;;;;;;3.20;0.80;;;;;;;15.04;45.75;100997.86;131345;1251;107491;-76
2023/06/03 09:17:31;;;;;;;1.50;0.70;;;;;;;15.18;45.35;100999.09;131318;1253;107439;-77
2023/06/03 09:20:37;;;;;;;2.10;0.60;;;;;;;15.20;45.30;100996.15;131435;1254;107412;-77
2023/06/03 09:23:43;;;;;;;1.20;0.70;;;;;;;15.25;45.20;100995.76;131212;1253;107355;-77
2023/06/03 09:26:50;;;;;;;0.80;0.50;;;;;;;15.29;45.22;100987.16;131206;1253;107571;-76
2023/06/03 09:29:56;;;;;;;1.30;0.60;;;;;;;15.37;45.05;100993.66;131189;1253;107843;-76
2023/06/03 09:33:02;;;;;;;1.70;0.50;;;;;;;15.43;45.02;100995.67;131163;1251;107619;-76
2023/06/03 09:36:13;;;;;;;1.10;0.50;;;;;;;15.47;44.55;100990.95;131233;1253;106791;-77
2023/06/03 09:39:34;;;;;;;1.00;0.60;;;;;;;15.52;44.62;100990.07;131298;1251;107508;-76
2023/06/03 09:42:46;;;;;;;1.40;0.60;;;;;;;15.58;44.40;100998.17;131359;1254;107628;-75
2023/06/03 09:45:52;;;;;;;1.10;0.60;;;;;;;15.62;43.21;100996.16;131141;1252;107507;-75
2023/06/03 09:49:09;;;;;;;1.80;0.70;;;;;;;15.52;43.12;100999.15;131430;1253;107536;-76
2023/06/03 09:52:32;;;;;;;2.50;0.80;;;;;;;15.44;42.02;101000.15;131355;1253;107521;-76
2023/06/03 09:55:38;;;;;;;1.90;0.50;;;;;;;15.33;43.59;100994.79;131360;1254;107628;-76
2023/06/03 09:58:43;;;;;;;2.40;0.70;;;;;;;15.42;42.65;100999.15;131458;1253;107464;-78
2023/06/03 10:01:51;;;;;;;1.00;0.70;;;;;;;15.40;42.60;100994.06;131258;1253;107668;-75
2023/06/03 10:04:58;;;;;;;1.40;0.70;;;;;;;15.39;42.65;100992.77;131363;1253;107626;-77
2023/06/03 10:08:04;;;;;;;0.70;0.50;;;;;;;15.47;43.15;100997.53;131267;1248;107206;-77
2023/06/03 10:11:10;;;;;;;2.00;0.70;;;;;;;15.47;42.40;100994.63;131122;1253;107420;-77
2023/06/03 10:14:17;;;;;;;1.90;0.70;;;;;;;15.46;41.74;100997.86;131123;1253;107568;-78
2023/06/03 10:17:23;;;;;;;1.90;0.60;;;;;;;15.50;42.41;100998.30;131192;1251;106260;-77
2023/06/03 10:20:39;;;;;;;1.70;0.70;;;;;;;15.62;42.60;100991.83;131417;1263;106392;-77
2023/06/03 10:23:45;;;;;;;1.20;0.70;;;;;;;15.70;42.10;100995.93;131135;1253;107221;-76
2023/06/03 10:26:51;;;;;;;1.40;0.80;;;;;;;15.76;41.82;100995.71;131066;1251;107423;-77
2023/06/03 10:29:57;;;;;;;1.50;0.70;;;;;;;15.81;41.89;100988.54;131234;1253;107542;-77
2023/06/03 10:33:03;;;;;;;0.90;0.50;;;;;;;15.88;42.59;100981.66;131281;1253;107550;-75
2023/06/03 10:36:09;;;;;;;0.90;0.70;;;;;;;16.03;42.14;100977.55;131411;1253;108642;-76
2023/06/03 10:39:15;;;;;;;0.80;0.60;;;;;;;16.12;42.17;100979.36;131200;1253;107412;-77
2023/06/03 10:42:21;;;;;;;1.00;0.70;;;;;;;16.23;42.28;100973.97;131121;1249;107513;-78
2023/06/03 10:45:27;;;;;;;1.60;0.70;;;;;;;16.35;41.58;100971.89;131141;1251;108142;-77
2023/06/03 10:48:35;;;;;;;0.80;0.60;;;;;;;16.30;39.71;100974.05;131311;1251;109294;-77
2023/06/03 10:51:53;;;;;;;0.50;0.50;;;;;;;16.25;41.12;100967.40;131262;1251;107202;-76
2023/06/03 10:55:11;;;;;;;1.30;0.50;;;;;;;16.33;40.72;100966.41;131084;1251;107116;-77
2023/06/03 10:58:22;;;;;;;1.10;0.50;;;;;;;16.28;40.05;100959.95;131225;1253;107243;-76
2023/06/03 11:02:00;;;;;;;1.30;0.60;;;;;;;16.25;39.46;100961.67;131366;1253;107586;-77
2023/06/03 11:05:25;;;;;;;1.20;0.50;;;;;;;16.32;40.15;100959.37;131382;1250;107493;-76
2023/06/03 11:09:02;;;;;;;1.50;0.50;;;;;;;16.36;40.31;100958.27;131266;1250;107418;-76
2023/06/03 11:12:13;;;;;;;1.20;0.50;;;;;;;16.43;40.49;100947.81;131348;1251;107484;-76
2023/06/03 11:15:19;;;;;;;2.00;0.50;;;;;;;16.47;39.73;100947.13;131470;1253;107442;-76
2023/06/03 11:18:25;;;;;;;1.30;0.50;;;;;;;16.52;40.35;100948.21;131413;1253;107383;-77
2023/06/03 11:21:50;;;;;;;1.20;0.60;;;;;;;16.61;40.35;100945.92;131497;1249;108097;-76
2023/06/03 11:24:56;;;;;;;0.80;0.60;;;;;;;16.67;39.77;100951.17;131450;1253;107362;-76
2023/06/03 11:28:36;;;;;;;1.60;0.70;;;;;;;16.64;39.16;100945.36;131223;1253;107548;-75
2023/06/03 11:31:42;;;;;;;2.80;0.60;;;;;;;16.57;38.71;100949.08;131275;1253;107384;-76
2023/06/03 11:34:49;;;;;;;2.40;0.60;;;;;;;16.58;39.59;100941.83;131404;1253;106645;-75
2023/06/03 11:37:55;;;;;;;3.10;0.80;;;;;;;16.68;39.82;100932.71;131368;1253;107345;-76
2023/06/03 11:41:00;;;;;;;2.00;0.50;;;;;;;16.79;39.44;100925.89;131437;1254;107495;-76
2023/06/03 11:44:33;;;;;;;1.00;0.60;;;;;;;16.90;39.63;100930.78;131278;1252;108226;-76
2023/06/03 11:47:51;;;;;;;2.20;0.70;;;;;;;16.88;37.87;100932.60;130908;1253;107097;-77
2023/06/03 11:50:57;;;;;;;1.50;0.60;;;;;;;16.75;39.48;100926.61;131233;1253;107409;-77
2023/06/03 11:54:12;;;;;;;1.20;0.60;;;;;;;16.86;39.91;100930.56;131180;1253;108719;-77
2023/06/03 11:57:18;;;;;;;3.20;0.80;;;;;;;16.97;38.99;100931.30;131200;1251;107246;-76
2023/06/03 12:00:24;;;;;;;1.70;0.50;;;;;;;16.91;38.85;100925.80;131149;1253;106503;-77
2023/06/03 12:03:30;;;;;;;1.30;0.50;;;;;;;16.84;38.87;100925.23;131416;1250;107540;-77
2023/06/03 12:06:39;;;;;;;0.80;0.50;;;;;;;16.65;39.26;100930.92;131299;1253;107909;-78
2023/06/03 12:09:45;;;;;;;2.50;0.60;;;;;;;16.49;39.24;100930.95;131123;1253;107877;-77
2023/06/03 12:12:54;;;;;;;1.20;0.60;;;;;;;16.41;39.29;100930.46;131131;1253;107257;-76
2023/06/03 12:16:00;;;;;;;2.10;0.70;;;;;;;16.45;38.77;100922.41;131226;1253;107479;-77
2023/06/03 12:19:06;;;;;;;0.80;0.50;;;;;;;16.54;39.27;100919.29;131122;1253;107491;-76
2023/06/03 12:22:12;;;;;;;1.40;0.40;;;;;;;16.67;39.17;100923.82;131135;1250;107503;-75
2023/06/03 12:25:23;;;;;;;0.90;0.60;;;;;;;16.81;39.19;100925.14;131149;1253;107449;-75
2023/06/03 12:28:29;;;;;;;1.60;0.70;;;;;;;16.94;39.09;100922.09;131328;1249;107267;-76
2023/06/03 12:31:35;;;;;;;0.70;0.50;;;;;;;17.09;39.62;100914.73;131475;1254;107412;-75
2023/06/03 12:34:41;;;;;;;1.20;0.80;;;;;;;17.23;39.22;100912.00;131507;1253;107485;-76
2023/06/03 12:37:46;;;;;;;1.90;0.60;;;;;;;17.35;39.17;100902.37;131283;1251;107223;-76
2023/06/03 12:40:52;;;;;;;0.80;0.60;;;;;;;17.45;38.92;100903.70;131207;1253;107626;-77
2023/06/03 12:44:03;;;;;;;1.50;0.50;;;;;;;17.41;37.16;100901.84;131202;1254;107458;-76
2023/06/03 12:47:09;;;;;;;2.10;0.70;;;;;;;17.31;37.83;100903.55;131149;1253;107430;-76
2023/06/03 12:50:18;;;;;;;1.60;0.60;;;;;;;17.30;38.21;100894.65;131151;1251;107331;-76
2023/06/03 12:53:24;;;;;;;1.20;0.40;;;;;;;17.28;37.02;100893.15;131316;1253;106382;-76
2023/06/03 12:56:30;;;;;;;1.90;0.70;;;;;;;17.25;38.11;100886.20;131122;1253;107150;-77
2023/06/03 12:59:38;;;;;;;2.70;0.60;;;;;;;17.35;38.09;100884.79;131088;1253;107359;-76
2023/06/03 13:02:45;;;;;;;2.10;0.50;;;;;;;17.38;37.55;100884.52;131285;1251;107379;-76
2023/06/03 13:05:51;;;;;;;1.10;0.40;;;;;;;17.37;37.67;100883.80;131147;1253;108602;-76
2023/06/03 13:08:56;;;;;;;1.10;0.30;;;;;;;17.37;37.53;100884.67;131126;1254;108482;-76
2023/06/03 13:12:02;;;;;;;1.30;0.40;;;;;;;17.37;37.59;100881.50;131087;1253;107486;-76
2023/06/03 13:15:09;;;;;;;1.60;0.50;;;;;;;17.35;37.06;100886.85;131089;1253;106670;-76
2023/06/03 13:18:14;;;;;;;2.10;0.60;;;;;;;17.32;36.71;100882.10;131080;1253;107635;-76
2023/06/03 13:21:20;;;;;;;2.00;0.40;;;;;;;17.31;36.98;100879.48;131199;1251;106169;-78
2023/06/03 13:24:25;;;;;;;1.70;0.40;;;;;;;17.37;37.27;100883.09;131087;1249;108094;-77
2023/06/03 13:27:31;;;;;;;1.40;0.40;;;;;;;17.44;37.38;100874.25;131087;1249;107740;-76
2023/06/03 13:30:36;;;;;;;0.90;0.50;;;;;;;17.48;37.04;100874.55;131345;1253;107538;-76
2023/06/03 13:33:42;;;;;;;1.20;0.50;;;;;;;17.52;37.51;100872.13;131123;1251;107718;-76
2023/06/03 13:36:48;;;;;;;1.60;0.60;;;;;;;17.58;37.13;100871.33;131166;1252;107575;-77
2023/06/03 13:39:54;;;;;;;0.90;0.40;;;;;;;17.59;37.02;100869.98;131154;1253;107277;-77
2023/06/03 13:43:01;;;;;;;0.80;0.40;;;;;;;17.59;36.80;100869.67;131150;1251;107365;-76
2023/06/03 13:46:08;;;;;;;1.60;0.50;;;;;;;17.62;37.18;100870.55;131152;1251;107332;-76
2023/06/03 13:49:13;;;;;;;1.20;0.50;;;;;;;17.72;37.04;100867.24;131230;1253;105651;-75
2023/06/03 13:52:20;;;;;;;0.90;0.60;;;;;;;17.76;36.83;100860.45;131393;1253;107617;-77
2023/06/03 13:55:26;;;;;;;0.60;0.40;;;;;;;17.76;36.78;100861.48;131373;1251;107534;-77
2023/06/03 13:58:31;;;;;;;1.50;0.50;;;;;;;17.74;36.79;100861.35;131284;1253;107445;-77
2023/06/03 14:01:37;;;;;;;1.80;0.60;;;;;;;17.75;36.74;100859.10;131374;1251;107357;-77
2023/06/03 14:04:44;;;;;;;1.80;0.50;;;;;;;17.75;36.63;100852.39;131135;1253;107622;-77
2023/06/03 14:07:52;;;;;;;0.90;0.60;;;;;;;17.74;35.69;100850.63;131151;1253;107293;-77
2023/06/03 14:10:57;;;;;;;2.20;0.40;;;;;;;17.66;36.26;100847.31;131360;1253;107544;-76
2023/06/03 14:14:03;;;;;;;1.90;0.60;;;;;;;17.66;36.26;100845.23;131148;1253;107351;-76
2023/06/03 14:17:09;;;;;;;0.80;0.50;;;;;;;17.67;36.36;100847.28;131394;1253;107483;-77